首页
METAR-TAF:

METAR-TAF

机场 :

McGhee Tyson Airport

諾克斯維爾, 田纳西州, 美国

纬度: 35-49-05N, 经度: 083-59-09W, 海拔: 299米

当前天气观测

该预报发布于39分钟前的21:53 UTC
风速8节,风向东转东北
温度 24°C
湿度 69%
气压 1014 hPa
能見度: 16.1公里
多云层高于4600英尺
阴天层高于10000英尺

METAR: KTYS 272153Z 06008KT 10SM BKN046 OVC100 24/18 A2995 RMK AO2 RAB31E47 SLP133 P0000 T02390183

时间: 18:32 (22:32 UTC)

预报

该预报发布于5小时和9分钟前的17:23 UTC
预报有效从27日的 18点(UTC)到 28日的 18点(UTC)
风速3节,风向多变
能見度: 10公里
多云层高于5000英尺
短暂存在
从 27日的 18点(UTC)到 27日的 20点(UTC)
能見度: 6.4公里
阴天层高于2500英尺
小阵雨, 轻雾
从 27日的 2000点(UTC)
风速3节,风向多变
能見度: 10公里
多云层高于6000英尺, 积雨云.
附近有雷暴
短暂存在
从 27日的 20点(UTC)到 27日的 23点(UTC)
能見度: 6.4公里
阴天层高于2500英尺
小阵雨, 轻雾
从 28日的 0300点(UTC)
风速3节,风向多变
能見度: 10公里
散云层高于6000英尺
从 28日的 0800点(UTC)
风速节,风向
能見度: 10公里
多云层高于4500英尺
几率 30%
从 28日的 10点(UTC)到 28日的 11点(UTC)
能見度: 3.2公里
阴天层高于2000英尺
小阵雨, 轻雾
从 28日的 1100点(UTC)
风速节,风向
能見度: 9.7公里
多云层高于3000英尺
轻雾
几率 30%
从 28日的 11点(UTC)到 28日的 15点(UTC)
能見度: 3.2公里
阴天层高于2000英尺
小阵雨, 轻雾
从 28日的 1500点(UTC)
风速7节,风向西南
能見度: 10公里
多云层高于2500英尺
小阵雨

TAF: KTYS 271723Z 2718/2818 VRB03KT P6SM BKN050 TEMPO 2718/2720 4SM -SHRA BR OVC025 FM272000 VRB03KT P6SM VCTS BKN060CB TEMPO 2720/2723 4SM -SHRA BR OVC025 FM280300 VRB03KT P6SM SCT060 FM280800 00000KT P6SM BKN045 PROB30 2810/2811 2SM -SHRA BR OVC020 FM281100 00000KT 6SM BR BKN030 PROB30 2811/2815 2SM -SHRA BR OVC020 FM281500 23007KT P6SM -SHRA BKN025

超过4000个机场的气象观测和天气预报(METAR&TAF报告)。

可查询的气象台以黄色和红色小点在地图上表示。

将鼠标移到小点上方,可查看气象台名称。

然后点击查看天气观测和预报。

如需切换地图:点击带黑十字的绿色按钮放大地图;点击带横线的绿色按钮缩小地图;或者点击绿色箭头查看邻近地区的地图。


METAR-TAF: